Flight Track Log - Related Links

Times and Time Zones

All times are in EDT time to prevent confusion due to time zone crossing. See the UAL5900 flight status page for this flight to view local times or setup timezone preferences in your user account.

Time Position Orientation Groundspeed Altitude Reporting Facility
EDT Latitude Longitude Course Direction KTS MPH feet Rate Location/Type
Sun 03:37:10 PM 44.7383 -85.5269 190° South 153 176 2,500  Level Chicago Center
Sun 03:38:12 PM 44.7092 -85.4697 126° Southeast 235 270 4,600 2,420 Climbing Chicago Center
Sun 03:39:00 PM 44.5331 -85.5750 187° South  Level FlightAware
Sun 03:39:09 PM 44.6439 -85.4822 188° South 241 277 7,300  Level Minneapolis Center
Sun 03:40:00 PM 44.4725 -85.5833 180° South  Level FlightAware
Sun 03:40:11 PM 44.5756 -85.5058 194° South 248 285 10,000  Level Minneapolis Center
Sun 03:41:00 PM 44.4125 -85.5969 190° South  Level FlightAware
Sun 03:41:24 PM 44.5053 -85.5294 193° South 255 293 11,600  Level Minneapolis Center
Sun 03:42:00 PM 44.3525 -85.6119 190° South  Level FlightAware
Sun 03:42:26 PM 44.4058 -85.5625 193° South 305 351 13,100  Level Minneapolis Center
Sun 03:43:27 PM 44.3003 -85.5989 194° South 324 373 14,600 1,240 Climbing Minneapolis Center
Sun 03:45:25 PM 44.1317 -85.6572 194° South 349 402 16,800 1,094 Climbing Chicago Center
Sun 03:46:28 PM 44.0331 -85.6908 194° South 362 417 17,900 1,258 Climbing Chicago Center
Sun 03:47:29 PM 43.9139 -85.7294 193° South 367 422 19,400 1,317 Climbing Chicago Center
Sun 03:48:31 PM 43.8206 -85.7597 193° South 376 433 20,600 1,228 Climbing Chicago Center
Sun 03:49:36 PM 43.6950 -85.8008 193° South 385 443 22,000 1,238 Climbing Minneapolis Center
Sun 03:50:37 PM 43.5881 -85.8278 190° South 389 448 23,200 976 Climbing Minneapolis Center
Sun 03:51:39 PM 43.4803 -85.8542 190° South 392 451 24,000 341 Climbing Minneapolis Center
Sun 03:52:40 PM 43.3661 -85.8822 190° South 407 468 23,900 -836 Descending Minneapolis Center
Sun 03:53:41 PM 43.2478 -85.9125 191° South 430 495 22,300 -1,756 Descending Chicago Center
Sun 03:54:43 PM 43.1411 -85.9444 192° South 393 452 20,300 -1,113 Descending Chicago Center
Sun 03:55:45 PM 43.0672 -86.0364 222° Southwest 377 434 20,000 -145 Descending Chicago Center
Sun 03:56:47 PM 42.9906 -86.1786 234° Southwest 396 456 20,000  Level Chicago Center
Sun 03:57:49 PM 42.9297 -86.3003 236° Southwest 391 450 20,000  Level Chicago Center
Sun 03:58:51 PM 42.8689 -86.4192 235° Southwest 386 444 20,000  Level Chicago Center
Sun 03:59:53 PM 42.8069 -86.5381 235° Southwest 387 445 20,000  Level Chicago Center
Sun 04:00:55 PM 42.7453 -86.6569 235° Southwest 387 445 20,000 -585 Level Chicago Center
Sun 04:01:56 PM 42.6700 -86.8014 235° Southwest 392 451 18,800 -1,659 Descending Chicago Center
Sun 04:02:58 PM 42.6106 -86.9150 235° Southwest 376 433 16,600 -2,081 Descending Chicago Center
Sun 04:04:00 PM 42.5564 -87.0219 236° Southwest 348 400 14,500 -2,129 Descending Chicago Center
Sun 04:05:02 PM 42.5025 -87.1217 234° Southwest 330 380 12,200 -2,129 Descending Chicago Center
Sun 04:06:04 PM 42.4517 -87.2203 235° Southwest 323 372 10,100 -1,065 Descending Chicago Center
Sun 04:07:06 PM 42.4008 -87.3147 234° Southwest 313 360 10,000 -48 Descending Chicago Center
Sun 04:08:08 PM 42.3653 -87.4347 248° West 307 353 10,000  Level Chicago Center
Sun 04:09:10 PM 42.3333 -87.5403 248° West 306 352 10,000  Level Chicago Center
Sun 04:10:12 PM 42.2661 -87.6133 219° Southwest 313 360 10,000  Level Chicago Center
Sun 04:11:14 PM 42.1850 -87.6967 217° Southwest 308 354 10,000 -484 Level Chicago Center
Sun 04:12:16 PM 42.1306 -87.7550 218° Southwest 253 291 9,000 -1,341 Descending Chicago Center
Sun 04:12:39 PM 42.1000 -87.7833 215° Southwest 236 272 8,100 -1,446 Descending Chicago TRACON
Sun 04:13:39 PM 42.0833 -87.8667 255° West 235 270 7,000 -550 Descending Chicago TRACON
Sun 04:14:39 PM 42.0667 -87.9333 251° West 211 243 7,000  Level Chicago TRACON
Sun 04:15:39 PM 42.0667 -88.0167 270° West 217 250 7,000 -200 Level Chicago TRACON
Sun 04:16:39 PM 42.0833 -88.0833 289° West 182 209 6,600 -722 Descending Chicago TRACON
Sun 04:17:27 PM 42.0814 -88.1389 267° West 195 224 5,700 -1,145 Descending Chicago Center
Sun 04:18:29 PM 42.0814 -88.1994 270° West 181 208 4,500 -823 Descending Chicago Center
Sun 04:19:31 PM 42.0456 -88.2117 194° South 166 191 4,000 -242 Descending Chicago Center
Sun 04:20:33 PM 42.0094 -88.1806 147° Southeast 165 190 4,000 -97 Level Chicago Center
Sun 04:21:35 PM 41.9728 -88.1197 129° Southeast 174 200 3,800 -614 Descending Chicago Center
Sun 04:22:40 PM 41.9667 -88.0500 97° East 180 207 2,700 -1,056 Descending Chicago TRACON
Sun 04:23:40 PM 41.9667 -87.9833 90° East 146 168 1,600 -1,100 Descending Chicago TRACON

Login

Don't have an account? Register now (free) for customized features, flight alerts, and more!